Aérodrome :
LOGIN :

S'inscrire | Disclaimer

   EN    FR    IT 

 










Légende :    VFR   VFR Marginal   IFR   IFR Intensif   IFR Très Intensif
Visi : 
Plafond : 
>= 8 km
>= 3000ft
5 à 8 km
1000 à 3000 ft
1500m à 5 km
500 à 1000 ft
800 à 1500m
200 à 500 ft
< 800m
< 200 ft
Symboles :   Orages  Brouillard  Fortes neiges  Fortes précipitations  Vent > 20 kt
SIGMETs :   Divers  Orages  Givrage  Turbulence  Onde Orograph.  Cendres Volcan.







- Altitude de l'aérodrome : 1411 ft
- Code IATA : GVA


LSGG - Genève Cointrin

DERNIER METAR :
  • 252020Z 16002KT 3000 -RA BR FEW004 SCT025 OVC045 09/09 Q1006 NOSIG

METARs EXPIRÉS :
  • 251950Z VRB02KT 4500 RA FEW004 SCT025 OVC045 09/09 Q1006 NOSIG
  • 251920Z 10003KT 5000 RA FEW004 SCT025 OVC045 09/09 Q1006 NOSIG
  • 251850Z VRB02KT 6000 -RA FEW005 SCT025 BKN045 09/09 Q1005 NOSIG
  • 251820Z 35003KT 5000 -RA FEW004 SCT025 BKN050 09/09 Q1006 NOSIG
  • 251750Z 35002KT 300V050 3000 -RA BR FEW004 SCT025 BKN050 09/09 Q1006 NOSIG

TAF TAF LSGG
Valide du 25 à 18h jusqu'au 27 à 00h UTC


251725Z 2518/2624 01002KT 6000 RA FEW008 SCT030 OVC050 TX09/2615Z TN05/2606Z
BECMG 2523/2601 23008KT
TEMPO 2523/2605 4500 SHRA
BECMG 2607/2609 NSW
BECMG 2613/2615 05010G20KT
BECMG 2618/2620 VRB03KT
ATIS : +41 22 417 40 81
Pas de NOTAMs connus pour ce terrain.



MET'MAP, la Météo Aéronautique d'un coup d'oeil ! - Copyright ORBIFLY Décembre 2007 - Disclaimer

ORBIFLY MET'MAP TEAM :

Programmation & Développement : Alexandra Zaïnal
Conception & Développement : Baudouin d'Aumeries
Co-Programmation & Développement : Marc-Olivier Méhu
Soutien technique & logistique : Manuel Goepfert

Contact : metmap@orbifly.com




SOURCES & CREDITS :

   NOAA